createdAt,value
2022-09-16T00:00:52.049Z,16.30
2022-09-16T00:03:19.466Z,16.30
2022-09-16T00:05:50.790Z,16.30
2022-09-16T00:08:19.742Z,16.30
2022-09-16T00:10:46.555Z,16.20
2022-09-16T00:13:14.533Z,16.20
2022-09-16T00:15:47.675Z,16.30
2022-09-16T00:18:14.880Z,16.10
2022-09-16T00:20:51.309Z,16.10
2022-09-16T00:23:19.324Z,16.10
2022-09-16T00:25:52.575Z,16.10
2022-09-16T00:28:21.743Z,16.10
2022-09-16T00:30:49.152Z,16.00
2022-09-16T00:33:16.387Z,16.00
2022-09-16T00:35:43.333Z,16.00
2022-09-16T00:38:10.193Z,15.90
2022-09-16T00:40:49.644Z,15.90
2022-09-16T00:43:20.061Z,15.90
2022-09-16T00:46:05.136Z,15.90
2022-09-16T00:48:33.983Z,15.80
2022-09-16T00:51:06.659Z,15.70
2022-09-16T00:53:44.061Z,15.80
2022-09-16T00:56:15.090Z,15.80
2022-09-16T00:58:48.782Z,15.70
2022-09-16T01:01:15.645Z,15.70
2022-09-16T01:03:50.000Z,15.80
2022-09-16T01:06:18.870Z,15.70
2022-09-16T01:08:46.564Z,15.70
2022-09-16T01:11:13.449Z,15.70
2022-09-16T01:13:43.315Z,15.70
2022-09-16T01:16:34.310Z,15.60
2022-09-16T01:19:49.201Z,15.50
2022-09-16T01:22:37.311Z,15.60
2022-09-16T01:25:26.309Z,15.60
2022-09-16T01:28:53.194Z,15.50
2022-09-16T01:31:51.593Z,15.50
2022-09-16T01:34:46.434Z,15.50
2022-09-16T01:37:33.257Z,15.50
2022-09-16T01:40:16.887Z,15.40
2022-09-16T01:43:04.143Z,15.40
2022-09-16T01:45:42.196Z,15.40
2022-09-16T01:48:39.063Z,15.40
2022-09-16T01:51:19.114Z,15.30
2022-09-16T01:54:03.958Z,15.30
2022-09-16T01:56:43.727Z,15.30
2022-09-16T01:59:23.082Z,15.30
2022-09-16T02:02:00.763Z,15.30
2022-09-16T02:04:36.709Z,15.30
2022-09-16T02:07:10.287Z,15.20
2022-09-16T02:09:44.297Z,15.20
2022-09-16T02:12:17.003Z,15.10
2022-09-16T02:14:48.055Z,15.20
2022-09-16T02:17:24.105Z,15.20
2022-09-16T02:20:06.651Z,15.10
2022-09-16T02:22:43.060Z,15.10
2022-09-16T02:25:13.279Z,15.20
2022-09-16T02:27:43.941Z,15.10
2022-09-16T02:30:17.680Z,15.10
2022-09-16T02:32:50.300Z,15.10
2022-09-16T02:35:20.711Z,15.00
2022-09-16T02:37:58.259Z,15.00
2022-09-16T02:40:36.762Z,15.00
2022-09-16T02:43:04.350Z,15.00
2022-09-16T02:46:11.161Z,15.00
2022-09-16T02:49:11.436Z,15.00
2022-09-16T02:52:14.389Z,15.00
2022-09-16T02:55:01.387Z,14.90
2022-09-16T02:57:29.614Z,14.90
2022-09-16T02:59:57.002Z,15.00
2022-09-16T03:02:24.097Z,14.90
2022-09-16T03:04:50.922Z,14.80
2022-09-16T03:07:18.467Z,14.90
2022-09-16T03:09:48.984Z,14.90
2022-09-16T03:12:37.802Z,14.90
2022-09-16T03:15:18.566Z,14.80
2022-09-16T03:18:00.931Z,14.90
2022-09-16T03:20:44.551Z,14.90
2022-09-16T03:23:36.554Z,14.80
2022-09-16T03:26:32.589Z,14.90
2022-09-16T03:29:18.055Z,14.80
2022-09-16T03:32:03.996Z,14.90
2022-09-16T03:34:46.568Z,14.90
2022-09-16T03:37:19.050Z,14.80
2022-09-16T03:39:57.658Z,14.70
2022-09-16T03:42:24.645Z,14.80
2022-09-16T03:44:51.880Z,14.80
2022-09-16T03:47:18.658Z,14.80
2022-09-16T03:49:45.365Z,14.80
2022-09-16T03:52:12.210Z,14.80
2022-09-16T03:54:39.136Z,14.90
2022-09-16T03:57:06.909Z,14.80
2022-09-16T03:59:33.711Z,14.90
2022-09-16T04:02:00.743Z,14.90
2022-09-16T04:04:27.531Z,14.90
2022-09-16T04:06:54.231Z,14.90
2022-09-16T04:09:21.006Z,14.90
2022-09-16T04:11:47.917Z,15.00
2022-09-16T04:14:14.849Z,15.00
2022-09-16T04:16:45.040Z,15.00
2022-09-16T04:19:14.347Z,15.00
2022-09-16T04:21:42.858Z,15.00
2022-09-16T04:24:13.192Z,15.10
2022-09-16T04:26:41.412Z,15.10
2022-09-16T04:29:08.302Z,15.10
2022-09-16T04:31:35.306Z,15.10
2022-09-16T04:34:05.766Z,15.10
2022-09-16T04:36:32.700Z,15.10
2022-09-16T04:38:59.473Z,15.00
2022-09-16T04:41:27.379Z,15.20
2022-09-16T04:43:57.615Z,15.20
2022-09-16T04:46:26.836Z,14.90
2022-09-16T04:48:55.882Z,15.20
2022-09-16T04:51:27.258Z,15.10
2022-09-16T04:53:56.633Z,15.10
2022-09-16T04:56:28.019Z,15.10
2022-09-16T04:58:59.787Z,15.10
2022-09-16T05:01:30.664Z,15.10
2022-09-16T05:04:01.024Z,15.10
2022-09-16T05:06:32.422Z,15.10
2022-09-16T05:09:03.072Z,15.10
2022-09-16T05:11:34.589Z,15.10
2022-09-16T05:14:03.760Z,15.00
2022-09-16T05:16:32.755Z,15.10
2022-09-16T05:19:04.612Z,15.10
2022-09-16T05:21:35.960Z,15.10
2022-09-16T05:24:07.648Z,15.10
2022-09-16T05:26:37.879Z,15.10
2022-09-16T05:29:16.321Z,15.10
2022-09-16T05:31:47.480Z,15.10
2022-09-16T05:34:21.561Z,15.10
2022-09-16T05:36:50.651Z,15.10
2022-09-16T05:39:26.226Z,15.10
2022-09-16T05:41:58.815Z,15.10
2022-09-16T05:44:27.895Z,15.10
2022-09-16T05:46:55.284Z,15.20
2022-09-16T05:49:23.476Z,15.20
2022-09-16T05:51:51.944Z,15.20
2022-09-16T05:54:19.407Z,15.30
2022-09-16T05:56:47.614Z,15.30
2022-09-16T05:59:16.385Z,15.40
2022-09-16T06:01:43.856Z,15.40
2022-09-16T06:04:13.984Z,15.40
2022-09-16T06:06:46.197Z,15.40
2022-09-16T06:09:23.204Z,15.40
2022-09-16T06:11:55.435Z,15.50
2022-09-16T06:14:24.989Z,15.40
2022-09-16T06:16:51.854Z,15.40
2022-09-16T06:19:19.872Z,15.50
2022-09-16T06:21:47.484Z,15.40
2022-09-16T06:24:16.964Z,15.50
2022-09-16T06:26:46.190Z,15.40
2022-09-16T06:29:14.499Z,15.50
2022-09-16T06:31:42.070Z,15.50
2022-09-16T06:34:18.838Z,15.50
2022-09-16T06:36:47.156Z,15.60
2022-09-16T06:39:16.170Z,15.60
2022-09-16T06:41:43.715Z,15.60
2022-09-16T06:44:10.522Z,15.70
2022-09-16T06:46:37.585Z,15.70
2022-09-16T06:49:06.272Z,15.70
2022-09-16T06:51:34.628Z,15.70
2022-09-16T06:54:07.538Z,15.70
2022-09-16T06:56:37.570Z,15.90
2022-09-16T06:59:05.283Z,15.90
2022-09-16T07:01:33.291Z,15.90
2022-09-16T07:04:05.868Z,16.00
2022-09-16T07:09:21.124Z,16.00
2022-09-16T07:11:47.877Z,16.20
2022-09-16T07:14:14.587Z,16.20
2022-09-16T07:16:41.366Z,16.30
2022-09-16T07:19:08.171Z,16.50
2022-09-16T07:21:35.134Z,16.50
2022-09-16T07:24:03.617Z,16.50
2022-09-16T07:26:33.767Z,16.60
2022-09-16T07:29:05.260Z,16.70
2022-09-16T07:31:36.076Z,16.70
2022-09-16T07:34:05.695Z,16.70
2022-09-16T07:36:43.161Z,16.80
2022-09-16T07:39:13.329Z,16.90
2022-09-16T07:41:43.348Z,16.90
2022-09-16T07:44:16.336Z,17.10
2022-09-16T07:46:43.722Z,17.00
2022-09-16T07:49:14.264Z,17.00
2022-09-16T07:51:41.596Z,17.10
2022-09-16T07:54:13.855Z,17.10
2022-09-16T07:56:42.723Z,17.20
2022-09-16T07:59:18.540Z,17.30
2022-09-16T08:01:48.446Z,17.40
2022-09-16T08:04:18.334Z,17.40
2022-09-16T08:06:45.104Z,17.50
2022-09-16T08:09:36.668Z,17.60
2022-09-16T08:11:59.646Z,17.60
2022-09-16T08:14:26.342Z,17.60
2022-09-16T08:16:53.133Z,17.70
2022-09-16T08:19:23.354Z,17.90
2022-09-16T08:21:51.309Z,17.90
2022-09-16T08:24:18.065Z,17.90
2022-09-16T08:26:45.508Z,18.00
2022-09-16T08:29:12.697Z,18.00
2022-09-16T08:31:39.724Z,18.00
2022-09-16T08:34:06.778Z,18.20
2022-09-16T08:36:34.308Z,18.20
2022-09-16T08:39:01.581Z,18.20
2022-09-16T08:41:55.875Z,18.30
2022-09-16T08:44:44.360Z,18.40
2022-09-16T08:48:15.332Z,18.40
2022-09-16T08:50:47.697Z,18.40
2022-09-16T08:53:37.419Z,18.40
2022-09-16T08:56:12.815Z,18.50
2022-09-16T08:58:46.644Z,18.50
2022-09-16T09:01:50.290Z,18.50
2022-09-16T09:04:17.439Z,18.60
2022-09-16T09:07:04.080Z,18.70
2022-09-16T09:10:10.081Z,18.60
2022-09-16T09:12:49.375Z,18.60
2022-09-16T09:15:47.068Z,18.70
2022-09-16T09:18:25.131Z,18.70
2022-09-16T09:21:21.501Z,18.70
2022-09-16T09:24:07.443Z,18.80
2022-09-16T09:26:50.369Z,18.80
2022-09-16T09:29:47.467Z,18.80
2022-09-16T09:32:48.425Z,18.80
2022-09-16T09:35:53.621Z,18.80
2022-09-16T09:38:58.962Z,18.90
2022-09-16T09:41:36.340Z,18.80
2022-09-16T09:44:48.729Z,18.90
2022-09-16T09:47:30.119Z,18.90
2022-09-16T09:50:10.676Z,19.00
2022-09-16T09:53:13.335Z,19.00
2022-09-16T09:55:42.266Z,19.10
2022-09-16T09:58:35.047Z,19.20
2022-09-16T10:01:02.071Z,19.20
2022-09-16T10:03:30.434Z,19.30
2022-09-16T10:05:57.841Z,19.40
2022-09-16T10:08:37.020Z,19.40
2022-09-16T10:11:27.058Z,19.50
2022-09-16T10:14:00.708Z,19.40
2022-09-16T10:16:39.556Z,19.50
2022-09-16T10:19:23.956Z,19.40
2022-09-16T10:22:23.278Z,19.40
2022-09-16T10:24:57.226Z,19.40
2022-09-16T10:27:35.844Z,19.40
2022-09-16T10:30:15.778Z,19.40
2022-09-16T10:32:59.988Z,19.50
2022-09-16T10:35:32.161Z,19.60
2022-09-16T10:38:16.165Z,19.60
2022-09-16T10:41:01.250Z,19.60
2022-09-16T10:43:31.934Z,19.70
2022-09-16T10:45:59.486Z,19.70
2022-09-16T10:48:33.116Z,19.70
2022-09-16T10:51:06.411Z,19.80
2022-09-16T10:53:39.289Z,19.90
2022-09-16T10:56:19.309Z,19.90
2022-09-16T10:58:46.394Z,20.00
2022-09-16T11:01:14.090Z,20.00
2022-09-16T11:04:47.175Z,20.00
2022-09-16T11:07:33.661Z,20.10
2022-09-16T11:10:33.153Z,20.10
2022-09-16T11:13:41.391Z,20.10
2022-09-16T11:16:50.894Z,20.10
2022-09-16T11:19:40.706Z,20.10
2022-09-16T11:23:13.753Z,20.20
2022-09-16T11:25:54.375Z,20.20
2022-09-16T11:28:46.461Z,20.40
2022-09-16T11:31:53.258Z,20.40
2022-09-16T11:34:41.455Z,20.40
2022-09-16T11:37:35.550Z,20.30
2022-09-16T11:40:35.560Z,20.20
2022-09-16T11:43:40.549Z,20.10
2022-09-16T11:46:23.641Z,20.00
2022-09-16T11:49:35.265Z,19.90
2022-09-16T11:52:36.805Z,19.80
2022-09-16T11:55:42.746Z,19.90
2022-09-16T11:58:29.913Z,19.90
2022-09-16T12:01:06.492Z,19.90
2022-09-16T12:04:19.122Z,19.90
2022-09-16T12:07:16.420Z,20.90
2022-09-16T12:09:56.607Z,19.90
2022-09-16T12:12:37.855Z,19.90
2022-09-16T12:15:29.640Z,19.90
2022-09-16T12:18:03.566Z,19.90
2022-09-16T12:20:41.428Z,19.70
2022-09-16T12:23:47.888Z,19.80
2022-09-16T12:26:30.148Z,19.80
2022-09-16T12:29:05.360Z,19.70
2022-09-16T12:31:47.727Z,19.70
2022-09-16T12:34:25.449Z,19.80
2022-09-16T12:37:09.957Z,19.80
2022-09-16T12:39:36.675Z,19.80
2022-09-16T12:42:52.157Z,19.90
2022-09-16T12:45:53.512Z,20.10
2022-09-16T12:49:05.117Z,20.10
2022-09-16T12:52:12.763Z,20.30
2022-09-16T12:55:08.811Z,20.30
2022-09-16T12:58:16.678Z,20.30
2022-09-16T13:01:23.068Z,20.30
2022-09-16T13:03:56.750Z,20.30
2022-09-16T13:06:36.328Z,20.30
2022-09-16T13:09:26.042Z,20.30
2022-09-16T13:14:51.660Z,20.40
2022-09-16T13:17:29.858Z,20.40
2022-09-16T13:20:18.270Z,20.40
2022-09-16T13:22:58.533Z,20.50
2022-09-16T13:25:34.378Z,20.50
2022-09-16T13:28:31.739Z,20.50
2022-09-16T13:31:17.750Z,20.40
2022-09-16T13:34:02.746Z,20.50
2022-09-16T13:36:34.391Z,20.60
2022-09-16T13:39:14.812Z,20.60
2022-09-16T13:41:47.099Z,20.70
2022-09-16T13:44:40.434Z,20.70
2022-09-16T13:47:10.191Z,20.80
2022-09-16T13:49:53.463Z,20.80
2022-09-16T13:52:32.110Z,20.90
2022-09-16T13:55:10.423Z,20.90
2022-09-16T13:58:06.559Z,20.90
2022-09-16T14:01:07.743Z,20.90
2022-09-16T14:03:38.718Z,21.00
2022-09-16T14:06:14.284Z,21.00
2022-09-16T14:09:17.962Z,21.00
2022-09-16T14:12:21.081Z,20.90
2022-09-16T14:14:48.539Z,20.90
2022-09-16T14:17:28.477Z,20.80
2022-09-16T14:20:00.619Z,20.80
2022-09-16T14:22:28.659Z,20.80
2022-09-16T14:25:05.961Z,20.80
2022-09-16T14:27:40.770Z,20.70
2022-09-16T14:30:18.954Z,20.80
2022-09-16T14:32:48.647Z,20.80
2022-09-16T14:35:22.938Z,20.90
2022-09-16T14:38:03.462Z,20.80
2022-09-16T14:40:30.372Z,21.00
2022-09-16T14:43:07.277Z,21.20
2022-09-16T14:45:37.257Z,21.20
2022-09-16T14:48:09.583Z,21.20
2022-09-16T14:50:46.314Z,21.30
2022-09-16T14:53:35.947Z,21.30
2022-09-16T14:56:05.156Z,21.40
2022-09-16T14:58:33.948Z,21.50
2022-09-16T15:01:15.365Z,21.60
2022-09-16T15:03:56.194Z,21.60
2022-09-16T15:06:33.781Z,21.70
2022-09-16T15:09:26.695Z,21.70
2022-09-16T15:11:59.774Z,21.70
2022-09-16T15:14:27.723Z,21.70
2022-09-16T15:17:01.155Z,21.70
2022-09-16T15:19:35.893Z,21.70
2022-09-16T15:22:09.009Z,21.70
2022-09-16T15:24:41.577Z,21.60
2022-09-16T15:27:09.449Z,21.50
2022-09-16T15:29:50.443Z,21.50
2022-09-16T15:32:20.730Z,21.40
2022-09-16T15:34:49.634Z,21.30
2022-09-16T15:37:34.341Z,21.20
2022-09-16T15:40:22.203Z,21.20
2022-09-16T15:43:02.747Z,21.20
2022-09-16T15:45:29.764Z,21.20
2022-09-16T15:48:02.530Z,21.20
2022-09-16T15:50:40.712Z,21.10
2022-09-16T15:53:44.369Z,21.00
2022-09-16T15:56:29.842Z,21.00
2022-09-16T15:59:45.616Z,21.00
2022-09-16T16:02:35.296Z,21.00
2022-09-16T16:05:14.177Z,21.00
2022-09-16T16:07:49.195Z,21.00
2022-09-16T16:10:26.744Z,20.90
2022-09-16T16:12:55.426Z,20.90
2022-09-16T16:15:27.473Z,20.80
2022-09-16T16:17:59.207Z,20.80
2022-09-16T16:20:26.584Z,20.70
2022-09-16T16:22:53.678Z,20.60
2022-09-16T16:25:20.614Z,20.60
2022-09-16T16:27:47.317Z,20.50
2022-09-16T16:30:14.061Z,20.40
2022-09-16T16:32:40.842Z,20.40
2022-09-16T16:35:08.092Z,20.40
2022-09-16T16:37:45.833Z,20.40
2022-09-16T16:40:14.061Z,20.30
2022-09-16T16:42:43.040Z,20.30
2022-09-16T16:45:12.350Z,20.30
2022-09-16T16:47:40.062Z,20.20
2022-09-16T16:50:07.039Z,20.20
2022-09-16T16:52:33.735Z,20.20
2022-09-16T16:55:00.888Z,20.20
2022-09-16T16:57:27.845Z,20.20
2022-09-16T16:59:54.581Z,20.00
2022-09-16T17:02:21.404Z,20.10
2022-09-16T17:04:48.714Z,20.00
2022-09-16T17:07:25.688Z,20.00
2022-09-16T17:09:54.283Z,20.00
2022-09-16T17:12:21.102Z,19.90
2022-09-16T17:14:48.025Z,19.90
2022-09-16T17:17:14.786Z,19.80
2022-09-16T17:19:41.479Z,19.70
2022-09-16T17:22:08.281Z,19.60
2022-09-16T17:24:35.249Z,19.50
2022-09-16T17:27:02.213Z,19.50
2022-09-16T17:29:29.074Z,19.30
2022-09-16T17:32:00.674Z,19.30
2022-09-16T17:34:27.499Z,19.30
2022-09-16T17:36:54.621Z,19.20
2022-09-16T17:39:22.870Z,19.10
2022-09-16T17:41:51.259Z,19.10
2022-09-16T17:44:19.429Z,19.00
2022-09-16T17:46:47.007Z,19.00
2022-09-16T17:49:21.482Z,18.90
2022-09-16T17:51:50.191Z,18.90
2022-09-16T17:54:17.641Z,18.80
2022-09-16T17:56:45.622Z,18.80
2022-09-16T17:59:15.429Z,18.70
2022-09-16T18:01:42.211Z,18.70
2022-09-16T18:04:09.275Z,18.60
2022-09-16T18:06:45.781Z,18.60
2022-09-16T18:09:14.084Z,18.50
2022-09-16T18:11:41.255Z,18.50
2022-09-16T18:14:11.693Z,18.30
2022-09-16T18:16:39.372Z,18.40
2022-09-16T18:19:07.430Z,18.30
2022-09-16T18:21:34.431Z,18.30
2022-09-16T18:24:03.666Z,18.10
2022-09-16T18:26:31.728Z,18.20
2022-09-16T18:29:10.416Z,18.20
2022-09-16T18:31:41.086Z,18.20
2022-09-16T18:34:08.108Z,18.20
2022-09-16T18:36:36.813Z,18.20
2022-09-16T18:39:05.936Z,18.20
2022-09-16T18:41:38.590Z,18.10
2022-09-16T18:44:20.806Z,18.10
2022-09-16T18:46:48.124Z,18.10
2022-09-16T18:49:17.058Z,18.10
2022-09-16T18:51:51.308Z,18.00
2022-09-16T18:54:28.491Z,18.10
2022-09-16T18:57:00.845Z,18.00
2022-09-16T18:59:32.830Z,18.00
2022-09-16T19:02:03.337Z,18.00
2022-09-16T19:04:33.341Z,18.00
2022-09-16T19:07:07.412Z,17.90
2022-09-16T19:09:38.097Z,17.90
2022-09-16T19:12:12.198Z,17.90
2022-09-16T19:14:39.892Z,17.90
2022-09-16T19:17:07.349Z,17.90
2022-09-16T19:19:34.761Z,17.90
2022-09-16T19:22:05.425Z,17.80
2022-09-16T19:24:32.359Z,17.90
2022-09-16T19:26:59.131Z,17.90
2022-09-16T19:29:25.852Z,17.90
2022-09-16T19:31:53.262Z,17.90
2022-09-16T19:34:21.399Z,17.80
2022-09-16T19:36:48.884Z,17.80
2022-09-16T19:39:15.757Z,17.80
2022-09-16T19:41:43.204Z,17.80
2022-09-16T19:44:16.618Z,17.80
2022-09-16T19:46:46.693Z,17.80
2022-09-16T19:49:20.536Z,17.70
2022-09-16T19:51:48.432Z,17.70
2022-09-16T19:54:16.028Z,17.70
2022-09-16T19:56:45.866Z,17.60
2022-09-16T19:59:13.938Z,17.60
2022-09-16T20:01:40.755Z,17.50
2022-09-16T20:04:08.562Z,17.50
2022-09-16T20:06:41.398Z,17.40
2022-09-16T20:09:12.791Z,17.30
2022-09-16T20:11:44.625Z,17.20
2022-09-16T20:14:21.707Z,17.10
2022-09-16T20:16:50.654Z,16.90
2022-09-16T20:19:20.048Z,16.90
2022-09-16T20:21:47.229Z,16.90
2022-09-16T20:24:18.818Z,16.70
2022-09-16T20:26:50.356Z,16.70
2022-09-16T20:29:18.789Z,16.60
2022-09-16T20:31:48.065Z,16.40
2022-09-16T20:34:16.304Z,16.50
2022-09-16T20:36:45.858Z,16.40
2022-09-16T20:39:13.822Z,16.20
2022-09-16T20:41:41.766Z,16.20
2022-09-16T20:44:15.752Z,16.10
2022-09-16T20:46:46.235Z,16.10
2022-09-16T20:49:19.399Z,16.70
2022-09-16T20:51:46.450Z,15.90
2022-09-16T20:54:15.519Z,15.90
2022-09-16T20:56:46.114Z,15.80
2022-09-16T20:59:16.309Z,15.80
2022-09-16T21:01:43.462Z,15.70
2022-09-16T21:04:17.417Z,15.70
2022-09-16T21:06:44.782Z,15.60
2022-09-16T21:09:15.042Z,15.60
2022-09-16T21:11:45.385Z,15.50
2022-09-16T21:14:15.978Z,15.50
2022-09-16T21:16:45.457Z,15.40
2022-09-16T21:19:13.431Z,15.40
2022-09-16T21:21:44.172Z,15.30
2022-09-16T21:24:11.698Z,15.20
2022-09-16T21:26:41.062Z,15.30
2022-09-16T21:29:11.663Z,15.20
2022-09-16T21:31:41.364Z,15.20
2022-09-16T21:34:15.013Z,15.20
2022-09-16T21:36:44.438Z,15.20
2022-09-16T21:39:15.416Z,15.20
2022-09-16T21:41:44.669Z,15.20
2022-09-16T21:44:12.970Z,15.10
2022-09-16T21:46:45.608Z,15.00
2022-09-16T21:49:24.056Z,15.10
2022-09-16T21:51:53.617Z,15.10
2022-09-16T21:54:20.879Z,15.10
2022-09-16T21:56:49.014Z,15.00
2022-09-16T21:59:16.310Z,15.00
2022-09-16T22:01:43.476Z,15.00
2022-09-16T22:04:18.973Z,15.00
2022-09-16T22:06:46.030Z,15.00
2022-09-16T22:09:12.894Z,15.00
2022-09-16T22:11:41.780Z,14.90
2022-09-16T22:14:11.019Z,15.00
2022-09-16T22:16:39.328Z,15.00
2022-09-16T22:19:18.171Z,15.00
2022-09-16T22:21:48.694Z,15.00
2022-09-16T22:24:19.920Z,15.00
2022-09-16T22:26:48.826Z,15.00
2022-09-16T22:29:15.732Z,15.00
2022-09-16T22:31:42.680Z,15.00
2022-09-16T22:34:10.687Z,15.00
2022-09-16T22:36:38.881Z,15.00
2022-09-16T22:39:12.480Z,15.00
2022-09-16T22:41:39.351Z,15.00
2022-09-16T22:44:06.350Z,15.00
2022-09-16T22:46:43.044Z,14.90
2022-09-16T22:49:10.929Z,15.00
2022-09-16T22:51:38.316Z,15.00
2022-09-16T22:54:06.763Z,15.00
2022-09-16T22:56:34.737Z,15.10
2022-09-16T22:59:04.728Z,15.00
2022-09-16T23:01:38.371Z,14.90
2022-09-16T23:04:09.337Z,15.00
2022-09-16T23:06:38.533Z,15.00
2022-09-16T23:09:07.618Z,15.00
2022-09-16T23:11:35.874Z,15.10
2022-09-16T23:14:04.120Z,15.00
2022-09-16T23:16:35.641Z,15.00
2022-09-16T23:19:06.911Z,15.10
2022-09-16T23:21:33.933Z,14.90
2022-09-16T23:24:03.374Z,15.00
2022-09-16T23:26:38.059Z,15.00
2022-09-16T23:29:08.875Z,15.00
2022-09-16T23:31:40.425Z,15.00
2022-09-16T23:34:13.666Z,15.00
2022-09-16T23:36:42.417Z,15.00
2022-09-16T23:39:11.680Z,15.00
2022-09-16T23:41:38.488Z,15.00
2022-09-16T23:44:05.792Z,15.00
2022-09-16T23:46:34.224Z,15.00
2022-09-16T23:49:01.822Z,15.10
2022-09-16T23:51:29.942Z,15.00
2022-09-16T23:53:58.526Z,15.10
2022-09-16T23:56:27.247Z,15.10
2022-09-16T23:58:58.397Z,15.00
